createdAt,value
2019-01-16T00:01:17.470Z,39.29
2019-01-16T00:04:33.670Z,39.01
2019-01-16T00:08:03.413Z,39.03
2019-01-16T00:11:26.474Z,38.53
2019-01-16T00:14:50.971Z,38.10
2019-01-16T00:18:17.295Z,38.49
2019-01-16T00:21:41.284Z,38.68
2019-01-16T00:25:05.766Z,38.35
2019-01-16T00:28:48.335Z,38.26
2019-01-16T00:32:05.923Z,38.46
2019-01-16T00:35:29.379Z,37.74
2019-01-16T00:38:51.234Z,37.87
2019-01-16T00:42:18.515Z,38.13
2019-01-16T00:45:45.780Z,37.79
2019-01-16T00:49:18.758Z,37.92
2019-01-16T00:52:49.120Z,37.82
2019-01-16T00:56:09.554Z,38.36
2019-01-16T00:59:40.099Z,38.12
2019-01-16T01:03:07.798Z,38.05
2019-01-16T01:06:47.822Z,37.44
2019-01-16T01:10:21.592Z,37.19
2019-01-16T01:13:48.938Z,37.19
2019-01-16T01:17:16.244Z,37.57
2019-01-16T01:20:43.543Z,37.60
2019-01-16T01:24:26.473Z,37.73
2019-01-16T01:28:00.079Z,37.94
2019-01-16T01:31:27.956Z,38.51
2019-01-16T01:34:44.510Z,37.87
2019-01-16T01:38:07.695Z,37.42
2019-01-16T01:41:32.304Z,37.20
2019-01-16T01:44:58.681Z,37.18
2019-01-16T01:48:16.208Z,36.55
2019-01-16T01:51:49.204Z,36.57
2019-01-16T01:55:14.519Z,37.27
2019-01-16T01:58:41.780Z,37.73
2019-01-16T02:01:56.733Z,38.95
2019-01-16T02:05:27.134Z,38.93
2019-01-16T02:09:00.661Z,39.15
2019-01-16T02:12:38.774Z,39.30
2019-01-16T02:16:15.372Z,39.37
2019-01-16T02:19:38.595Z,40.21
2019-01-16T02:23:01.941Z,40.13
2019-01-16T02:26:32.284Z,40.13
2019-01-16T02:29:55.657Z,40.13
2019-01-16T02:33:20.162Z,40.43
2019-01-16T02:36:37.480Z,40.38
2019-01-16T02:40:00.449Z,40.67
2019-01-16T02:43:28.390Z,40.78
2019-01-16T02:46:46.146Z,41.51
2019-01-16T02:50:09.378Z,41.81
2019-01-16T02:53:32.424Z,42.22
2019-01-16T02:56:59.915Z,42.28
2019-01-16T03:00:15.890Z,42.81
2019-01-16T03:03:55.527Z,43.09
2019-01-16T03:07:11.354Z,43.47
2019-01-16T03:10:41.875Z,43.25
2019-01-16T03:14:09.091Z,43.71
2019-01-16T03:17:33.608Z,43.40
2019-01-16T03:20:56.678Z,43.55
2019-01-16T03:24:23.940Z,43.45
2019-01-16T03:27:48.445Z,43.41
2019-01-16T03:31:12.957Z,43.63
2019-01-16T03:34:29.451Z,43.71
2019-01-16T03:37:46.913Z,43.22
2019-01-16T03:41:11.413Z,43.42
2019-01-16T03:44:34.815Z,43.45
2019-01-16T03:48:02.459Z,43.45
2019-01-16T03:51:25.317Z,43.46
2019-01-16T03:54:48.740Z,43.64
2019-01-16T03:58:11.885Z,43.51
2019-01-16T04:01:35.069Z,43.20
2019-01-16T04:05:00.406Z,43.16
2019-01-16T04:08:18.848Z,43.38
2019-01-16T04:11:43.482Z,43.16
2019-01-16T04:15:17.278Z,43.13
2019-01-16T04:18:50.949Z,43.20
2019-01-16T04:22:18.233Z,42.94
2019-01-16T04:25:41.285Z,43.09
2019-01-16T04:28:56.645Z,43.16
2019-01-16T04:32:30.226Z,42.72
2019-01-16T04:36:03.908Z,42.29
2019-01-16T04:39:23.270Z,41.84
2019-01-16T04:42:46.778Z,42.34
2019-01-16T04:46:20.235Z,42.61
2019-01-16T04:49:37.185Z,42.70
2019-01-16T04:53:00.270Z,42.20
2019-01-16T04:56:23.710Z,42.60
2019-01-16T04:59:54.056Z,42.55
2019-01-16T05:03:30.941Z,42.27
2019-01-16T05:06:54.077Z,41.81
2019-01-16T05:10:18.614Z,41.79
2019-01-16T05:13:34.702Z,41.85
2019-01-16T05:17:01.905Z,42.00
2019-01-16T05:20:26.215Z,41.88
2019-01-16T05:23:59.969Z,42.13
2019-01-16T05:27:23.188Z,41.96
2019-01-16T05:30:46.211Z,42.02
2019-01-16T05:34:09.270Z,41.87
2019-01-16T05:37:48.818Z,41.89
2019-01-16T05:41:11.973Z,42.00
2019-01-16T05:44:35.105Z,41.88
2019-01-16T05:48:03.833Z,42.11
2019-01-16T05:51:28.377Z,41.94
2019-01-16T05:54:47.966Z,41.68
2019-01-16T05:58:18.316Z,41.47
2019-01-16T06:01:41.512Z,41.32
2019-01-16T06:05:05.957Z,40.92
2019-01-16T06:08:19.952Z,40.52
2019-01-16T06:11:47.351Z,40.18
2019-01-16T06:15:17.910Z,40.20
2019-01-16T06:18:42.418Z,39.93
2019-01-16T06:22:07.907Z,40.10
2019-01-16T06:25:31.231Z,39.67
2019-01-16T06:28:55.778Z,39.51
2019-01-16T06:32:18.867Z,38.50
2019-01-16T06:35:47.285Z,37.54
2019-01-16T06:39:20.909Z,37.38
2019-01-16T06:42:48.403Z,36.79
2019-01-16T06:46:12.976Z,36.11
2019-01-16T06:49:41.750Z,35.75
2019-01-16T06:53:24.448Z,35.65
2019-01-16T06:56:51.726Z,35.67
2019-01-16T07:00:15.045Z,35.50
2019-01-16T07:03:42.503Z,35.50
2019-01-16T07:07:25.212Z,35.55
2019-01-16T07:10:55.742Z,36.02
2019-01-16T07:14:10.077Z,36.56
2019-01-16T07:17:53.134Z,37.08
2019-01-16T07:21:17.677Z,36.75
2019-01-16T07:25:00.340Z,36.73
2019-01-16T07:28:37.124Z,36.47
2019-01-16T07:32:07.709Z,36.08
2019-01-16T07:35:44.240Z,35.45
2019-01-16T07:39:11.788Z,34.64
2019-01-16T07:42:35.088Z,34.08
2019-01-16T07:46:05.525Z,33.87
2019-01-16T07:49:28.223Z,33.25
2019-01-16T07:52:50.668Z,32.89
2019-01-16T07:56:27.318Z,32.70
2019-01-16T08:00:10.003Z,32.55
2019-01-16T08:03:33.246Z,31.43
2019-01-16T08:07:09.756Z,31.21
2019-01-16T08:10:49.840Z,31.12
2019-01-16T08:14:09.775Z,30.64
2019-01-16T08:17:25.470Z,30.40
2019-01-16T08:20:56.963Z,30.44
2019-01-16T08:24:39.605Z,30.37
2019-01-16T08:28:06.875Z,29.79
2019-01-16T08:31:31.377Z,29.49
2019-01-16T08:35:03.524Z,29.74
2019-01-16T08:38:28.912Z,30.04
2019-01-16T08:41:56.274Z,30.07
2019-01-16T08:45:23.598Z,29.26
2019-01-16T08:49:00.369Z,28.45
2019-01-16T08:52:27.739Z,27.91
2019-01-16T08:55:47.697Z,27.92
2019-01-16T08:59:25.348Z,27.66
2019-01-16T09:02:50.789Z,27.52
2019-01-16T09:06:15.359Z,27.63
2019-01-16T09:09:58.081Z,27.29
2019-01-16T09:13:21.249Z,27.86
2019-01-16T09:16:39.869Z,27.77
2019-01-16T09:20:13.717Z,27.64
2019-01-16T09:23:31.080Z,27.97
2019-01-16T09:26:52.524Z,27.45
2019-01-16T09:30:15.984Z,27.57
2019-01-16T09:33:52.533Z,27.15
2019-01-16T09:37:32.234Z,27.00
2019-01-16T09:41:02.926Z,26.69
2019-01-16T09:44:32.741Z,26.40
2019-01-16T09:48:12.317Z,26.70
2019-01-16T09:51:35.536Z,27.39
2019-01-16T09:55:15.272Z,28.16
2019-01-16T09:58:38.925Z,28.61
2019-01-16T10:02:21.731Z,28.76
2019-01-16T10:06:04.722Z,28.79
2019-01-16T10:09:20.299Z,28.37
2019-01-16T10:12:50.982Z,27.62
2019-01-16T10:16:15.500Z,27.41
2019-01-16T10:19:39.002Z,27.03
2019-01-16T10:23:09.696Z,27.07
2019-01-16T10:26:33.150Z,27.05
2019-01-16T10:30:00.709Z,27.26
2019-01-16T10:33:23.136Z,26.90
2019-01-16T10:36:46.547Z,26.85
2019-01-16T10:40:09.661Z,26.39
2019-01-16T10:43:27.673Z,26.05
2019-01-16T10:46:51.079Z,26.22
2019-01-16T10:50:07.655Z,26.47
2019-01-16T10:53:30.835Z,26.25
2019-01-16T10:56:58.158Z,26.04
2019-01-16T11:00:23.032Z,26.15
2019-01-16T11:03:44.033Z,25.91
2019-01-16T11:07:14.846Z,25.71
2019-01-16T11:10:48.703Z,25.58
2019-01-16T11:14:13.210Z,25.58
2019-01-16T11:17:40.807Z,25.58
2019-01-16T11:21:10.979Z,25.85
2019-01-16T11:24:30.653Z,26.15
2019-01-16T11:28:04.271Z,25.90
2019-01-16T11:31:47.281Z,25.68
2019-01-16T11:35:10.613Z,26.28
2019-01-16T11:38:37.874Z,27.00
2019-01-16T11:41:55.235Z,27.43
2019-01-16T11:45:10.736Z,27.84
2019-01-16T11:48:35.280Z,27.98
2019-01-16T11:52:02.697Z,28.34
2019-01-16T11:55:39.370Z,28.88
2019-01-16T11:58:58.844Z,28.89
2019-01-16T12:02:19.931Z,28.71
2019-01-16T12:05:36.448Z,28.22
2019-01-16T12:09:07.448Z,27.99
2019-01-16T12:12:30.799Z,27.75
2019-01-16T12:16:04.294Z,27.64
2019-01-16T12:19:24.920Z,27.82
2019-01-16T12:22:49.524Z,27.58
2019-01-16T12:26:09.092Z,27.30
2019-01-16T12:29:33.637Z,27.09
2019-01-16T12:32:49.558Z,27.15
2019-01-16T12:36:12.721Z,27.56
2019-01-16T12:39:43.093Z,27.83
2019-01-16T12:43:13.561Z,27.60
2019-01-16T12:46:40.904Z,27.58
2019-01-16T12:50:15.391Z,27.74
2019-01-16T12:53:42.793Z,27.61
2019-01-16T12:57:07.446Z,27.75
2019-01-16T13:00:26.657Z,27.67
2019-01-16T13:03:49.979Z,28.09
2019-01-16T13:07:14.478Z,27.80
2019-01-16T13:10:44.845Z,27.46
2019-01-16T13:14:06.369Z,27.47
2019-01-16T13:17:31.799Z,27.40
2019-01-16T13:20:55.177Z,27.67
2019-01-16T13:24:22.363Z,27.67
2019-01-16T13:27:43.403Z,27.83
2019-01-16T13:31:06.828Z,27.81
2019-01-16T13:34:46.863Z,27.79
2019-01-16T13:38:09.420Z,28.28
2019-01-16T13:41:36.980Z,28.35
2019-01-16T13:45:07.678Z,28.42
2019-01-16T13:48:38.504Z,28.45
2019-01-16T13:52:09.017Z,28.82
2019-01-16T13:55:40.148Z,28.74
2019-01-16T13:59:00.388Z,28.83
2019-01-16T14:02:24.697Z,29.22
2019-01-16T14:05:52.499Z,29.42
2019-01-16T14:09:20.052Z,29.53
2019-01-16T14:12:34.796Z,30.05
2019-01-16T14:15:58.126Z,30.51
2019-01-16T14:19:21.298Z,31.14
2019-01-16T14:22:46.973Z,31.43
2019-01-16T14:26:10.155Z,31.52
2019-01-16T14:29:33.231Z,31.63
2019-01-16T14:33:05.208Z,31.66
2019-01-16T14:36:41.932Z,31.93
2019-01-16T14:40:12.472Z,31.97
2019-01-16T14:43:41.645Z,32.10
2019-01-16T14:47:24.526Z,32.20
2019-01-16T14:50:46.670Z,32.21
2019-01-16T14:54:16.324Z,32.45
2019-01-16T14:57:49.770Z,32.44
2019-01-16T15:01:17.833Z,32.63
2019-01-16T15:04:48.243Z,32.81
2019-01-16T15:08:11.950Z,32.75
2019-01-16T15:11:36.791Z,32.92
2019-01-16T15:14:52.125Z,32.94
2019-01-16T15:18:15.573Z,33.02
2019-01-16T15:21:45.927Z,33.21
2019-01-16T15:25:02.621Z,33.40
2019-01-16T15:28:20.171Z,33.47
2019-01-16T15:31:47.698Z,33.51
2019-01-16T15:35:18.057Z,33.84
2019-01-16T15:38:42.556Z,33.66
2019-01-16T15:42:07.164Z,33.57
2019-01-16T15:45:23.584Z,33.45
2019-01-16T15:48:55.178Z,33.45
2019-01-16T15:52:30.067Z,33.55
2019-01-16T15:56:04.499Z,33.65
2019-01-16T15:59:38.306Z,33.62
2019-01-16T16:03:05.863Z,33.86
2019-01-16T16:06:28.966Z,33.91
2019-01-16T16:09:56.502Z,33.86
2019-01-16T16:13:19.922Z,34.02
2019-01-16T16:16:37.815Z,34.03
2019-01-16T16:20:01.008Z,33.99
2019-01-16T16:23:29.088Z,34.13
2019-01-16T16:26:53.827Z,34.37
2019-01-16T16:30:36.988Z,34.17
2019-01-16T16:34:19.734Z,34.15
2019-01-16T16:37:44.305Z,34.33
2019-01-16T16:41:07.389Z,34.13
2019-01-16T16:44:30.656Z,34.48
2019-01-16T16:47:56.255Z,34.64
2019-01-16T16:51:20.757Z,34.88
2019-01-16T16:54:54.772Z,34.80
2019-01-16T16:58:19.266Z,34.78
2019-01-16T17:01:56.130Z,35.09
2019-01-16T17:05:19.482Z,35.32
2019-01-16T17:08:47.335Z,35.81
2019-01-16T17:12:10.532Z,35.93
2019-01-16T17:15:38.072Z,35.87
2019-01-16T17:18:57.919Z,36.15
2019-01-16T17:22:22.591Z,36.36
2019-01-16T17:25:46.625Z,36.45
2019-01-16T17:29:11.186Z,36.29
2019-01-16T17:32:31.067Z,35.97
2019-01-16T17:35:54.573Z,35.79
2019-01-16T17:39:19.228Z,35.98
2019-01-16T17:42:46.543Z,35.74
2019-01-16T17:46:13.986Z,35.26
2019-01-16T17:49:37.121Z,35.27
2019-01-16T17:53:07.656Z,34.99
2019-01-16T17:56:31.208Z,35.01
2019-01-16T17:59:52.500Z,35.12
2019-01-16T18:03:08.280Z,35.09
2019-01-16T18:06:42.109Z,35.03
2019-01-16T18:10:24.685Z,35.09
2019-01-16T18:13:58.260Z,35.21
2019-01-16T18:17:21.668Z,34.90
2019-01-16T18:21:04.732Z,35.06
2019-01-16T18:24:27.414Z,34.96
2019-01-16T18:27:53.307Z,35.06
2019-01-16T18:31:17.892Z,35.23
2019-01-16T18:34:57.865Z,35.23
2019-01-16T18:38:12.223Z,35.32
2019-01-16T18:41:35.700Z,34.96
2019-01-16T18:45:06.252Z,35.06
2019-01-16T18:48:40.050Z,35.04
2019-01-16T18:52:51.767Z,34.92
2019-01-16T18:57:02.310Z,34.69
2019-01-16T19:01:22.576Z,34.48
2019-01-16T19:04:48.492Z,34.54
2019-01-16T19:08:50.354Z,34.38
2019-01-16T19:12:42.316Z,34.24
2019-01-16T19:16:16.505Z,34.15
2019-01-16T19:20:05.047Z,34.16
2019-01-16T19:23:29.649Z,34.31
2019-01-16T19:27:00.025Z,34.32
2019-01-16T19:30:45.487Z,34.44
2019-01-16T19:34:12.630Z,34.14
2019-01-16T19:37:43.020Z,34.47
2019-01-16T19:41:07.478Z,34.66
2019-01-16T19:44:38.337Z,34.45
2019-01-16T19:48:42.370Z,34.60
2019-01-16T19:52:06.791Z,34.47
2019-01-16T19:56:10.260Z,34.92
2019-01-16T20:00:00.624Z,35.00
2019-01-16T20:03:17.758Z,35.14
2019-01-16T20:06:54.568Z,34.90
2019-01-16T20:10:34.460Z,35.20
2019-01-16T20:13:56.867Z,35.66
2019-01-16T20:17:15.896Z,35.71
2019-01-16T20:20:58.997Z,36.04
2019-01-16T20:24:26.775Z,35.43
2019-01-16T20:27:51.236Z,35.52
2019-01-16T20:31:15.889Z,35.31
2019-01-16T20:34:52.410Z,35.30
2019-01-16T20:38:15.421Z,35.08
2019-01-16T20:41:38.763Z,35.21
2019-01-16T20:45:02.724Z,35.04
2019-01-16T20:48:30.169Z,35.12
2019-01-16T20:52:03.644Z,35.27
2019-01-16T20:55:27.011Z,35.31
2019-01-16T20:58:51.478Z,35.45
2019-01-16T21:02:22.043Z,35.45
2019-01-16T21:05:45.289Z,35.41
2019-01-16T21:09:08.441Z,35.40
2019-01-16T21:12:36.305Z,35.36
2019-01-16T21:15:57.238Z,35.31
2019-01-16T21:19:17.999Z,35.30
2019-01-16T21:22:54.852Z,35.55
2019-01-16T21:26:22.144Z,35.18
2019-01-16T21:29:53.016Z,35.40
2019-01-16T21:33:26.831Z,35.53
2019-01-16T21:36:54.351Z,35.64
2019-01-16T21:40:34.028Z,35.62
2019-01-16T21:44:16.810Z,35.95
2019-01-16T21:47:40.182Z,35.71
2019-01-16T21:51:03.574Z,35.88
2019-01-16T21:54:31.295Z,36.04
2019-01-16T21:57:54.469Z,36.12
2019-01-16T22:01:28.144Z,36.17
2019-01-16T22:04:44.066Z,36.46
2019-01-16T22:08:14.449Z,37.49
2019-01-16T22:11:39.189Z,38.21
2019-01-16T22:15:03.608Z,39.14
2019-01-16T22:18:31.184Z,39.63
2019-01-16T22:21:58.716Z,41.11
2019-01-16T22:25:23.315Z,41.46
2019-01-16T22:28:50.994Z,41.79
2019-01-16T22:32:14.426Z,42.76
2019-01-16T22:35:48.523Z,43.24
2019-01-16T22:39:19.348Z,42.50
2019-01-16T22:42:39.718Z,42.92
2019-01-16T22:46:10.569Z,43.62
2019-01-16T22:49:34.071Z,44.07
2019-01-16T22:53:16.890Z,43.85
2019-01-16T22:56:40.074Z,44.31
2019-01-16T23:00:16.586Z,44.97
2019-01-16T23:03:41.173Z,44.63
2019-01-16T23:07:18.137Z,44.51
2019-01-16T23:10:41.399Z,45.29
2019-01-16T23:14:15.132Z,44.77
2019-01-16T23:17:38.581Z,44.44
2019-01-16T23:21:06.302Z,43.92
2019-01-16T23:24:30.776Z,43.75
2019-01-16T23:27:55.242Z,43.35
2019-01-16T23:31:14.577Z,43.09
2019-01-16T23:34:41.837Z,42.65
2019-01-16T23:38:09.211Z,42.00
2019-01-16T23:41:42.608Z,41.67
2019-01-16T23:45:22.412Z,41.69
2019-01-16T23:48:51.575Z,41.98
2019-01-16T23:52:14.700Z,41.52
2019-01-16T23:55:29.615Z,42.13
2019-01-16T23:59:00.185Z,42.68
